sensor_id;sensor_type;location;lat;lon;timestamp;pressure;altitude;pressure_sealevel;temperature;humidity
83697;BME280;73677;54.530;18.484;2024-01-27T00:00:52;100569.84;;;4.64;85.51
83697;BME280;73677;54.530;18.484;2024-01-27T00:03:54;100569.31;;;4.54;87.05
83697;BME280;73677;54.530;18.484;2024-01-27T00:06:38;100568.66;;;4.52;86.80
83697;BME280;73677;54.530;18.484;2024-01-27T00:09:15;100564.19;;;4.44;87.14
83697;BME280;73677;54.530;18.484;2024-01-27T00:11:44;100568.59;;;4.45;87.96
83697;BME280;73677;54.530;18.484;2024-01-27T00:14:13;100548.13;;;4.28;87.80
83697;BME280;73677;54.530;18.484;2024-01-27T00:16:42;100570.41;;;4.38;87.81
83697;BME280;73677;54.530;18.484;2024-01-27T00:19:11;100566.44;;;4.41;87.95
83697;BME280;73677;54.530;18.484;2024-01-27T00:21:40;100563.00;;;4.32;88.69
83697;BME280;73677;54.530;18.484;2024-01-27T00:24:09;100561.91;;;4.26;88.63
83697;BME280;73677;54.530;18.484;2024-01-27T00:26:38;100567.34;;;4.26;88.49
83697;BME280;73677;54.530;18.484;2024-01-27T00:29:08;100564.81;;;4.25;88.59
83697;BME280;73677;54.530;18.484;2024-01-27T00:31:36;100563.41;;;4.29;89.19
83697;BME280;73677;54.530;18.484;2024-01-27T00:34:05;100572.25;;;4.16;88.97
83697;BME280;73677;54.530;18.484;2024-01-27T00:36:34;100563.91;;;4.18;89.37
83697;BME280;73677;54.530;18.484;2024-01-27T00:39:04;100549.19;;;4.12;90.26
83697;BME280;73677;54.530;18.484;2024-01-27T00:41:43;100567.66;;;4.17;89.76
83697;BME280;73677;54.530;18.484;2024-01-27T00:44:17;100555.84;;;4.10;89.75
83697;BME280;73677;54.530;18.484;2024-01-27T00:46:57;100565.69;;;4.11;89.45
83697;BME280;73677;54.530;18.484;2024-01-27T00:49:27;100557.94;;;4.08;89.92
83697;BME280;73677;54.530;18.484;2024-01-27T00:51:56;100561.19;;;4.03;89.91
83697;BME280;73677;54.530;18.484;2024-01-27T00:54:26;100554.47;;;3.99;90.06
83697;BME280;73677;54.530;18.484;2024-01-27T00:56:56;100543.72;;;3.91;90.36
83697;BME280;73677;54.530;18.484;2024-01-27T00:59:25;100562.88;;;4.04;90.54
83697;BME280;73677;54.530;18.484;2024-01-27T01:01:56;100545.66;;;3.97;90.09
83697;BME280;73677;54.530;18.484;2024-01-27T01:04:26;100521.59;;;3.79;89.41
83697;BME280;73677;54.530;18.484;2024-01-27T01:06:55;100537.69;;;3.96;89.05
83697;BME280;73677;54.530;18.484;2024-01-27T01:09:25;100551.81;;;4.06;89.44
83697;BME280;73677;54.530;18.484;2024-01-27T01:11:58;100546.44;;;3.91;89.19
83697;BME280;73677;54.530;18.484;2024-01-27T01:14:46;100554.84;;;3.96;89.52
83697;BME280;73677;54.530;18.484;2024-01-27T01:17:44;100549.72;;;3.87;88.98
83697;BME280;73677;54.530;18.484;2024-01-27T01:20:17;100530.69;;;3.72;89.23
83697;BME280;73677;54.530;18.484;2024-01-27T01:22:45;100529.19;;;3.84;89.58
83697;BME280;73677;54.530;18.484;2024-01-27T01:25:25;100545.59;;;3.91;90.28
83697;BME280;73677;54.530;18.484;2024-01-27T01:28:09;100538.34;;;3.83;89.35
83697;BME280;73677;54.530;18.484;2024-01-27T01:34:00;100540.06;;;3.84;90.75
83697;BME280;73677;54.530;18.484;2024-01-27T01:36:28;100531.81;;;3.77;90.17
83697;BME280;73677;54.530;18.484;2024-01-27T01:38:57;100536.59;;;3.75;89.67
83697;BME280;73677;54.530;18.484;2024-01-27T01:41:26;100522.34;;;3.73;89.80
83697;BME280;73677;54.530;18.484;2024-01-27T01:43:55;100534.47;;;3.71;89.81
83697;BME280;73677;54.530;18.484;2024-01-27T01:46:23;100516.94;;;3.59;89.47
83697;BME280;73677;54.530;18.484;2024-01-27T01:48:52;100539.34;;;3.61;89.67
83697;BME280;73677;54.530;18.484;2024-01-27T01:51:23;100531.94;;;3.55;89.16
83697;BME280;73677;54.530;18.484;2024-01-27T01:53:57;100520.06;;;3.56;89.35
83697;BME280;73677;54.530;18.484;2024-01-27T01:56:25;100530.66;;;3.51;89.84
83697;BME280;73677;54.530;18.484;2024-01-27T01:58:55;100535.69;;;3.54;89.90
83697;BME280;73677;54.530;18.484;2024-01-27T02:01:23;100539.59;;;3.51;90.37
83697;BME280;73677;54.530;18.484;2024-01-27T02:03:53;100527.72;;;3.52;90.09
83697;BME280;73677;54.530;18.484;2024-01-27T02:06:23;100513.09;;;3.53;90.28
83697;BME280;73677;54.530;18.484;2024-01-27T02:08:52;100521.38;;;3.45;90.22
83697;BME280;73677;54.530;18.484;2024-01-27T02:11:21;100518.66;;;3.45;90.41
83697;BME280;73677;54.530;18.484;2024-01-27T02:13:50;100508.88;;;3.36;89.69
83697;BME280;73677;54.530;18.484;2024-01-27T02:16:18;100500.56;;;3.23;90.27
83697;BME280;73677;54.530;18.484;2024-01-27T02:18:49;100514.13;;;3.37;90.16
83697;BME280;73677;54.530;18.484;2024-01-27T02:21:17;100527.91;;;3.36;90.09
83697;BME280;73677;54.530;18.484;2024-01-27T02:23:48;100517.03;;;3.36;91.05
83697;BME280;73677;54.530;18.484;2024-01-27T02:26:18;100495.69;;;3.18;90.84
83697;BME280;73677;54.530;18.484;2024-01-27T02:28:46;100527.84;;;3.29;90.33
83697;BME280;73677;54.530;18.484;2024-01-27T02:31:15;100520.03;;;3.26;90.93
83697;BME280;73677;54.530;18.484;2024-01-27T02:33:44;100541.75;;;3.26;91.06
83697;BME280;73677;54.530;18.484;2024-01-27T02:36:12;100525.94;;;3.30;90.48
83697;BME280;73677;54.530;18.484;2024-01-27T02:38:41;100534.19;;;3.22;91.05
83697;BME280;73677;54.530;18.484;2024-01-27T02:41:10;100526.22;;;3.20;90.66
83697;BME280;73677;54.530;18.484;2024-01-27T02:43:40;100534.75;;;3.17;90.72
83697;BME280;73677;54.530;18.484;2024-01-27T02:46:11;100539.34;;;3.17;90.29
83697;BME280;73677;54.530;18.484;2024-01-27T02:48:42;100532.66;;;3.19;90.41
83697;BME280;73677;54.530;18.484;2024-01-27T02:51:11;100529.59;;;3.08;90.47
83697;BME280;73677;54.530;18.484;2024-01-27T02:53:40;100530.78;;;2.90;90.28
83697;BME280;73677;54.530;18.484;2024-01-27T02:56:09;100527.31;;;2.82;90.99
83697;BME280;73677;54.530;18.484;2024-01-27T02:58:40;100543.66;;;2.88;91.38
83697;BME280;73677;54.530;18.484;2024-01-27T03:01:09;100541.81;;;2.89;91.66
83697;BME280;73677;54.530;18.484;2024-01-27T03:03:38;100555.66;;;2.94;91.59
83697;BME280;73677;54.530;18.484;2024-01-27T03:06:06;100533.75;;;2.81;91.54
83697;BME280;73677;54.530;18.484;2024-01-27T03:08:35;100546.69;;;2.93;91.32
83697;BME280;73677;54.530;18.484;2024-01-27T03:11:04;100546.88;;;2.92;91.36
83697;BME280;73677;54.530;18.484;2024-01-27T03:13:33;100557.34;;;2.95;91.67
83697;BME280;73677;54.530;18.484;2024-01-27T03:16:08;100557.06;;;2.90;91.55
83697;BME280;73677;54.530;18.484;2024-01-27T03:18:37;100552.66;;;2.89;91.57
83697;BME280;73677;54.530;18.484;2024-01-27T03:21:06;100559.06;;;2.96;91.21
83697;BME280;73677;54.530;18.484;2024-01-27T03:23:35;100565.63;;;3.02;91.15
83697;BME280;73677;54.530;18.484;2024-01-27T03:26:04;100568.88;;;2.97;91.72
83697;BME280;73677;54.530;18.484;2024-01-27T03:28:33;100573.09;;;2.99;91.50
83697;BME280;73677;54.530;18.484;2024-01-27T03:31:03;100577.59;;;2.92;91.16
83697;BME280;73677;54.530;18.484;2024-01-27T03:33:32;100575.06;;;2.91;91.22
83697;BME280;73677;54.530;18.484;2024-01-27T03:36:01;100581.78;;;2.95;91.42
83697;BME280;73677;54.530;18.484;2024-01-27T03:38:30;100585.81;;;2.99;91.37
83697;BME280;73677;54.530;18.484;2024-01-27T03:40:59;100578.22;;;2.94;91.54
83697;BME280;73677;54.530;18.484;2024-01-27T03:43:27;100599.69;;;3.04;91.17
83697;BME280;73677;54.530;18.484;2024-01-27T03:45:57;100604.09;;;3.05;91.19
83697;BME280;73677;54.530;18.484;2024-01-27T03:48:27;100593.97;;;2.99;91.17
83697;BME280;73677;54.530;18.484;2024-01-27T03:50:56;100602.31;;;2.97;91.15
83697;BME280;73677;54.530;18.484;2024-01-27T03:53:25;100606.47;;;3.08;91.61
83697;BME280;73677;54.530;18.484;2024-01-27T03:55:54;100614.22;;;3.11;91.47
83697;BME280;73677;54.530;18.484;2024-01-27T03:58:25;100617.03;;;3.03;91.17
83697;BME280;73677;54.530;18.484;2024-01-27T04:00:54;100628.38;;;3.07;91.30
83697;BME280;73677;54.530;18.484;2024-01-27T04:03:23;100629.03;;;3.09;91.73
83697;BME280;73677;54.530;18.484;2024-01-27T04:05:53;100560.19;;;2.64;91.52
83697;BME280;73677;54.530;18.484;2024-01-27T04:08:22;100648.22;;;3.07;91.63
83697;BME280;73677;54.530;18.484;2024-01-27T04:10:50;100651.78;;;3.08;92.02
83697;BME280;73677;54.530;18.484;2024-01-27T04:13:19;100650.25;;;3.05;92.24
83697;BME280;73677;54.530;18.484;2024-01-27T04:15:47;100657.69;;;3.11;92.22
83697;BME280;73677;54.530;18.484;2024-01-27T04:18:18;100664.63;;;3.14;91.78
83697;BME280;73677;54.530;18.484;2024-01-27T04:20:47;100672.28;;;3.10;91.70
83697;BME280;73677;54.530;18.484;2024-01-27T04:23:17;100683.28;;;3.17;92.01
83697;BME280;73677;54.530;18.484;2024-01-27T04:25:46;100685.31;;;3.15;92.47
83697;BME280;73677;54.530;18.484;2024-01-27T04:28:14;100674.69;;;3.05;92.50
83697;BME280;73677;54.530;18.484;2024-01-27T04:30:43;100677.41;;;3.05;91.66
83697;BME280;73677;54.530;18.484;2024-01-27T04:33:12;100656.31;;;2.92;92.37
83697;BME280;73677;54.530;18.484;2024-01-27T04:35:41;100699.63;;;3.09;92.27
83697;BME280;73677;54.530;18.484;2024-01-27T04:38:10;100705.25;;;3.07;92.64
83697;BME280;73677;54.530;18.484;2024-01-27T04:40:39;100644.44;;;2.71;92.46
83697;BME280;73677;54.530;18.484;2024-01-27T04:43:08;100715.44;;;3.05;92.91
83697;BME280;73677;54.530;18.484;2024-01-27T04:45:36;100716.09;;;3.07;92.47
83697;BME280;73677;54.530;18.484;2024-01-27T04:48:05;100722.38;;;3.08;92.59
83697;BME280;73677;54.530;18.484;2024-01-27T04:50:34;100723.94;;;3.02;92.30
83697;BME280;73677;54.530;18.484;2024-01-27T04:53:03;100722.13;;;2.94;92.50
83697;BME280;73677;54.530;18.484;2024-01-27T04:55:32;100680.59;;;2.63;91.89
83697;BME280;73677;54.530;18.484;2024-01-27T04:58:03;100736.53;;;2.95;92.30
83697;BME280;73677;54.530;18.484;2024-01-27T05:00:31;100749.28;;;2.94;92.37
83697;BME280;73677;54.530;18.484;2024-01-27T05:03:00;100757.41;;;2.94;92.50
83697;BME280;73677;54.530;18.484;2024-01-27T05:05:31;100760.00;;;2.88;91.76
83697;BME280;73677;54.530;18.484;2024-01-27T05:08:03;100769.72;;;2.82;91.95
83697;BME280;73677;54.530;18.484;2024-01-27T05:10:32;100779.72;;;2.82;92.38
83697;BME280;73677;54.530;18.484;2024-01-27T05:13:01;100784.16;;;2.75;92.66
83697;BME280;73677;54.530;18.484;2024-01-27T05:15:30;100787.59;;;2.69;92.58
83697;BME280;73677;54.530;18.484;2024-01-27T05:17:59;100795.19;;;2.73;92.49
83697;BME280;73677;54.530;18.484;2024-01-27T05:20:28;100797.94;;;2.65;92.33
83697;BME280;73677;54.530;18.484;2024-01-27T05:22:57;100715.75;;;2.09;92.63
83697;BME280;73677;54.530;18.484;2024-01-27T05:25:25;100811.00;;;2.70;92.99
83697;BME280;73677;54.530;18.484;2024-01-27T05:27:54;100821.69;;;2.71;92.90
83697;BME280;73677;54.530;18.484;2024-01-27T05:30:23;100842.72;;;2.69;93.07
83697;BME280;73677;54.530;18.484;2024-01-27T05:32:53;100839.31;;;2.67;93.19
83697;BME280;73677;54.530;18.484;2024-01-27T05:35:22;100849.47;;;2.73;93.56
83697;BME280;73677;54.530;18.484;2024-01-27T05:37:51;100865.91;;;2.80;93.35
83697;BME280;73677;54.530;18.484;2024-01-27T05:40:21;100867.25;;;2.84;94.06
83697;BME280;73677;54.530;18.484;2024-01-27T05:42:50;100876.03;;;2.94;93.59
83697;BME280;73677;54.530;18.484;2024-01-27T05:45:18;100881.50;;;2.86;94.01
83697;BME280;73677;54.530;18.484;2024-01-27T05:47:47;100895.22;;;2.92;93.89
83697;BME280;73677;54.530;18.484;2024-01-27T05:50:17;100889.97;;;2.91;94.12
83697;BME280;73677;54.530;18.484;2024-01-27T05:52:46;100907.38;;;3.05;93.89
83697;BME280;73677;54.530;18.484;2024-01-27T05:55:15;100910.28;;;3.03;94.22
83697;BME280;73677;54.530;18.484;2024-01-27T05:57:44;100908.59;;;3.02;93.59
83697;BME280;73677;54.530;18.484;2024-01-27T06:00:13;100920.31;;;3.03;94.22
83697;BME280;73677;54.530;18.484;2024-01-27T06:02:42;100928.47;;;2.94;93.80
83697;BME280;73677;54.530;18.484;2024-01-27T06:05:11;100950.69;;;2.98;94.21
83697;BME280;73677;54.530;18.484;2024-01-27T06:07:42;100953.53;;;3.05;94.09
83697;BME280;73677;54.530;18.484;2024-01-27T06:10:12;100965.09;;;3.07;93.82
83697;BME280;73677;54.530;18.484;2024-01-27T06:12:41;100973.06;;;3.08;94.24
83697;BME280;73677;54.530;18.484;2024-01-27T06:15:10;100974.09;;;2.99;93.43
83697;BME280;73677;54.530;18.484;2024-01-27T06:17:39;100987.34;;;3.02;93.47
83697;BME280;73677;54.530;18.484;2024-01-27T06:20:08;100982.59;;;2.96;93.28
83697;BME280;73677;54.530;18.484;2024-01-27T06:22:37;101008.72;;;2.97;93.13
83697;BME280;73677;54.530;18.484;2024-01-27T06:25:08;101001.09;;;2.92;92.25
83697;BME280;73677;54.530;18.484;2024-01-27T06:27:38;101026.88;;;2.88;92.22
83697;BME280;73677;54.530;18.484;2024-01-27T06:30:09;101034.38;;;2.86;92.40
83697;BME280;73677;54.530;18.484;2024-01-27T06:32:38;101040.97;;;2.84;93.04
83697;BME280;73677;54.530;18.484;2024-01-27T06:35:07;101060.31;;;2.73;92.89
83697;BME280;73677;54.530;18.484;2024-01-27T06:37:36;101069.31;;;2.73;93.14
83697;BME280;73677;54.530;18.484;2024-01-27T06:40:07;101059.31;;;2.74;93.41
83697;BME280;73677;54.530;18.484;2024-01-27T06:42:37;101077.13;;;2.68;93.59
83697;BME280;73677;54.530;18.484;2024-01-27T06:45:06;101091.53;;;2.69;93.11
83697;BME280;73677;54.530;18.484;2024-01-27T06:47:35;101085.25;;;2.68;93.71
83697;BME280;73677;54.530;18.484;2024-01-27T06:50:04;101100.84;;;2.58;93.80
83697;BME280;73677;54.530;18.484;2024-01-27T06:52:33;101103.22;;;2.53;93.93
83697;BME280;73677;54.530;18.484;2024-01-27T06:55:02;101100.34;;;2.63;93.72
83697;BME280;73677;54.530;18.484;2024-01-27T06:57:35;101114.44;;;2.58;94.06
83697;BME280;73677;54.530;18.484;2024-01-27T07:00:05;101120.38;;;2.62;94.14
83697;BME280;73677;54.530;18.484;2024-01-27T07:02:34;101115.44;;;2.49;93.96
83697;BME280;73677;54.530;18.484;2024-01-27T07:05:04;101130.41;;;2.61;93.89
83697;BME280;73677;54.530;18.484;2024-01-27T07:07:32;101133.09;;;2.61;93.88
83697;BME280;73677;54.530;18.484;2024-01-27T07:10:02;101145.63;;;2.62;93.70
83697;BME280;73677;54.530;18.484;2024-01-27T07:12:31;101152.59;;;2.65;93.92
83697;BME280;73677;54.530;18.484;2024-01-27T07:15:01;101136.66;;;2.62;93.78
83697;BME280;73677;54.530;18.484;2024-01-27T07:17:30;101150.56;;;2.59;93.94
83697;BME280;73677;54.530;18.484;2024-01-27T07:19:59;101139.19;;;2.55;94.31
83697;BME280;73677;54.530;18.484;2024-01-27T07:22:28;101146.50;;;2.54;93.84
83697;BME280;73677;54.530;18.484;2024-01-27T07:24:57;101169.94;;;2.72;93.70
83697;BME280;73677;54.530;18.484;2024-01-27T07:27:26;101171.25;;;2.68;93.23
83697;BME280;73677;54.530;18.484;2024-01-27T07:29:55;101186.72;;;2.75;93.41
83697;BME280;73677;54.530;18.484;2024-01-27T07:32:25;101206.22;;;2.71;93.51
83697;BME280;73677;54.530;18.484;2024-01-27T07:34:54;101210.28;;;2.75;93.28
83697;BME280;73677;54.530;18.484;2024-01-27T07:37:22;101229.13;;;2.76;94.00
83697;BME280;73677;54.530;18.484;2024-01-27T07:39:51;101212.66;;;2.78;93.51
83697;BME280;73677;54.530;18.484;2024-01-27T07:42:20;101216.06;;;2.72;93.77
83697;BME280;73677;54.530;18.484;2024-01-27T07:44:49;101225.22;;;2.71;93.04
83697;BME280;73677;54.530;18.484;2024-01-27T07:47:17;101242.19;;;2.73;93.49
83697;BME280;73677;54.530;18.484;2024-01-27T07:49:47;101249.31;;;2.66;93.12
83697;BME280;73677;54.530;18.484;2024-01-27T07:52:17;101265.59;;;2.74;93.24
83697;BME280;73677;54.530;18.484;2024-01-27T07:54:45;101252.16;;;2.64;92.84
83697;BME280;73677;54.530;18.484;2024-01-27T07:57:14;101271.38;;;2.79;92.22
83697;BME280;73677;54.530;18.484;2024-01-27T07:59:43;101300.59;;;2.85;91.57
83697;BME280;73677;54.530;18.484;2024-01-27T08:02:11;101295.84;;;2.87;91.85
83697;BME280;73677;54.530;18.484;2024-01-27T08:04:40;101296.66;;;2.71;92.12
83697;BME280;73677;54.530;18.484;2024-01-27T08:07:10;101322.53;;;2.58;92.15
83697;BME280;73677;54.530;18.484;2024-01-27T08:09:42;101321.16;;;2.53;92.50
83697;BME280;73677;54.530;18.484;2024-01-27T08:12:11;101331.53;;;2.58;92.08
83697;BME280;73677;54.530;18.484;2024-01-27T08:14:40;101342.06;;;2.61;92.24
83697;BME280;73677;54.530;18.484;2024-01-27T08:17:08;101337.50;;;2.62;91.62
83697;BME280;73677;54.530;18.484;2024-01-27T08:19:37;101344.56;;;2.54;91.25
83697;BME280;73677;54.530;18.484;2024-01-27T08:22:06;101361.06;;;2.61;91.63
83697;BME280;73677;54.530;18.484;2024-01-27T08:24:38;101335.69;;;2.44;91.97
83697;BME280;73677;54.530;18.484;2024-01-27T08:27:06;101358.75;;;2.40;92.12
83697;BME280;73677;54.530;18.484;2024-01-27T08:29:35;101363.50;;;2.46;92.00
83697;BME280;73677;54.530;18.484;2024-01-27T08:32:04;101367.56;;;2.42;92.29
83697;BME280;73677;54.530;18.484;2024-01-27T08:34:33;101379.47;;;2.49;92.09
83697;BME280;73677;54.530;18.484;2024-01-27T08:37:02;101388.09;;;2.45;91.89
83697;BME280;73677;54.530;18.484;2024-01-27T08:39:31;101394.00;;;2.40;91.61
83697;BME280;73677;54.530;18.484;2024-01-27T08:42:01;101408.22;;;2.34;91.37
83697;BME280;73677;54.530;18.484;2024-01-27T08:44:30;101413.38;;;2.20;91.63
83697;BME280;73677;54.530;18.484;2024-01-27T08:46:59;101430.25;;;2.13;92.25
83697;BME280;73677;54.530;18.484;2024-01-27T08:49:30;101433.97;;;2.12;91.83
83697;BME280;73677;54.530;18.484;2024-01-27T08:51:59;101432.69;;;1.99;91.80
83697;BME280;73677;54.530;18.484;2024-01-27T08:54:28;101443.09;;;1.94;92.16
83697;BME280;73677;54.530;18.484;2024-01-27T08:56:57;101449.38;;;1.94;91.79
83697;BME280;73677;54.530;18.484;2024-01-27T08:59:27;101457.69;;;1.93;92.56
83697;BME280;73677;54.530;18.484;2024-01-27T09:01:57;101458.75;;;2.00;92.02
83697;BME280;73677;54.530;18.484;2024-01-27T09:04:26;101456.84;;;1.92;91.35
83697;BME280;73677;54.530;18.484;2024-01-27T09:06:54;101471.72;;;1.88;92.46
83697;BME280;73677;54.530;18.484;2024-01-27T09:09:23;101471.78;;;1.96;92.30
83697;BME280;73677;54.530;18.484;2024-01-27T09:11:53;101474.88;;;2.01;92.25
83697;BME280;73677;54.530;18.484;2024-01-27T09:14:22;101486.19;;;1.97;92.04
83697;BME280;73677;54.530;18.484;2024-01-27T09:16:53;101484.34;;;1.97;91.69
83697;BME280;73677;54.530;18.484;2024-01-27T09:19:22;101496.81;;;2.08;92.23
83697;BME280;73677;54.530;18.484;2024-01-27T09:21:51;101495.03;;;2.17;91.96
83697;BME280;73677;54.530;18.484;2024-01-27T09:24:20;101510.19;;;2.27;92.25
83697;BME280;73677;54.530;18.484;2024-01-27T09:26:49;101512.06;;;2.27;91.51
83697;BME280;73677;54.530;18.484;2024-01-27T09:29:18;101521.44;;;2.32;91.60
83697;BME280;73677;54.530;18.484;2024-01-27T09:31:47;101518.25;;;2.37;91.02
83697;BME280;73677;54.530;18.484;2024-01-27T09:34:17;101491.22;;;2.27;90.86
83697;BME280;73677;54.530;18.484;2024-01-27T09:36:46;101519.50;;;2.42;91.44
83697;BME280;73677;54.530;18.484;2024-01-27T09:39:15;101535.66;;;2.52;90.94
83697;BME280;73677;54.530;18.484;2024-01-27T09:41:45;101502.41;;;2.24;90.41
83697;BME280;73677;54.530;18.484;2024-01-27T09:44:17;101541.44;;;2.49;90.12
83697;BME280;73677;54.530;18.484;2024-01-27T09:46:46;101539.19;;;2.44;90.87
83697;BME280;73677;54.530;18.484;2024-01-27T09:49:16;101558.81;;;2.56;89.67
83697;BME280;73677;54.530;18.484;2024-01-27T09:51:46;101566.09;;;2.55;89.93
83697;BME280;73677;54.530;18.484;2024-01-27T09:54:16;101559.31;;;2.60;90.00
83697;BME280;73677;54.530;18.484;2024-01-27T09:56:46;101568.22;;;2.70;90.72
83697;BME280;73677;54.530;18.484;2024-01-27T09:59:15;101581.66;;;2.71;89.58
83697;BME280;73677;54.530;18.484;2024-01-27T10:01:47;101582.03;;;2.76;89.74
83697;BME280;73677;54.530;18.484;2024-01-27T10:04:19;101584.19;;;2.73;89.56
83697;BME280;73677;54.530;18.484;2024-01-27T10:06:49;101582.72;;;2.78;90.03
83697;BME280;73677;54.530;18.484;2024-01-27T10:09:19;101595.38;;;2.87;89.57
83697;BME280;73677;54.530;18.484;2024-01-27T10:11:47;101601.63;;;2.88;88.53
83697;BME280;73677;54.530;18.484;2024-01-27T10:14:17;101590.59;;;3.07;88.94
83697;BME280;73677;54.530;18.484;2024-01-27T10:16:45;101605.88;;;3.08;87.29
83697;BME280;73677;54.530;18.484;2024-01-27T10:19:16;101608.59;;;3.08;87.74
83697;BME280;73677;54.530;18.484;2024-01-27T10:21:45;101613.16;;;3.08;87.25
83697;BME280;73677;54.530;18.484;2024-01-27T10:24:16;101605.94;;;2.98;86.63
83697;BME280;73677;54.530;18.484;2024-01-27T10:26:45;101614.66;;;3.02;88.04
83697;BME280;73677;54.530;18.484;2024-01-27T10:29:15;101615.97;;;2.98;86.46
83697;BME280;73677;54.530;18.484;2024-01-27T10:31:43;101640.44;;;2.98;87.60
83697;BME280;73677;54.530;18.484;2024-01-27T10:34:12;101630.09;;;3.02;87.91
83697;BME280;73677;54.530;18.484;2024-01-27T10:36:43;101606.38;;;2.86;87.28
83697;BME280;73677;54.530;18.484;2024-01-27T10:39:20;101632.19;;;3.08;86.94
83697;BME280;73677;54.530;18.484;2024-01-27T10:41:50;101635.94;;;3.15;87.83
83697;BME280;73677;54.530;18.484;2024-01-27T10:44:20;101586.66;;;2.84;86.27
83697;BME280;73677;54.530;18.484;2024-01-27T10:46:49;101645.81;;;3.16;87.37
83697;BME280;73677;54.530;18.484;2024-01-27T10:49:22;101648.66;;;3.14;88.06
83697;BME280;73677;54.530;18.484;2024-01-27T10:51:53;101650.38;;;3.15;88.14
83697;BME280;73677;54.530;18.484;2024-01-27T10:54:26;101659.63;;;3.22;87.37
83697;BME280;73677;54.530;18.484;2024-01-27T10:56:56;101665.81;;;3.32;87.86
83697;BME280;73677;54.530;18.484;2024-01-27T10:59:27;101682.97;;;3.33;87.67
83697;BME280;73677;54.530;18.484;2024-01-27T11:01:56;101683.19;;;3.39;87.24
83697;BME280;73677;54.530;18.484;2024-01-27T11:04:25;101681.97;;;3.34;84.72
83697;BME280;73677;54.530;18.484;2024-01-27T11:06:55;101693.22;;;3.39;86.24
83697;BME280;73677;54.530;18.484;2024-01-27T11:09:27;101699.31;;;3.41;87.15
83697;BME280;73677;54.530;18.484;2024-01-27T11:11:58;101696.19;;;3.28;86.18
83697;BME280;73677;54.530;18.484;2024-01-27T11:14:27;101690.59;;;3.29;85.76
83697;BME280;73677;54.530;18.484;2024-01-27T11:16:56;101691.59;;;3.28;85.26
83697;BME280;73677;54.530;18.484;2024-01-27T11:19:27;101713.75;;;3.41;84.99
83697;BME280;73677;54.530;18.484;2024-01-27T11:22:02;101712.03;;;3.40;84.35
83697;BME280;73677;54.530;18.484;2024-01-27T11:24:33;101684.22;;;3.21;84.66
83697;BME280;73677;54.530;18.484;2024-01-27T11:27:03;101721.44;;;3.46;83.54
83697;BME280;73677;54.530;18.484;2024-01-27T11:29:32;101718.72;;;3.46;82.88
83697;BME280;73677;54.530;18.484;2024-01-27T11:32:02;101722.84;;;3.50;84.50
83697;BME280;73677;54.530;18.484;2024-01-27T11:34:42;101733.13;;;3.64;84.41
83697;BME280;73677;54.530;18.484;2024-01-27T11:37:16;101736.72;;;3.65;82.76
83697;BME280;73677;54.530;18.484;2024-01-27T11:39:48;101752.03;;;3.66;83.37
83697;BME280;73677;54.530;18.484;2024-01-27T11:42:17;101760.09;;;3.58;82.67
83697;BME280;73677;54.530;18.484;2024-01-27T11:44:46;101760.91;;;3.50;82.43
83697;BME280;73677;54.530;18.484;2024-01-27T11:47:16;101767.97;;;3.61;84.44
83697;BME280;73677;54.530;18.484;2024-01-27T11:49:51;101764.84;;;3.56;82.88
83697;BME280;73677;54.530;18.484;2024-01-27T11:52:21;101772.84;;;3.57;83.43
83697;BME280;73677;54.530;18.484;2024-01-27T11:54:55;101768.41;;;3.56;83.52
83697;BME280;73677;54.530;18.484;2024-01-27T11:57:24;101775.03;;;3.54;83.89
83697;BME280;73677;54.530;18.484;2024-01-27T11:59:53;101797.69;;;3.62;84.08
83697;BME280;73677;54.530;18.484;2024-01-27T12:02:22;101784.25;;;3.61;83.19
83697;BME280;73677;54.530;18.484;2024-01-27T12:04:51;101799.25;;;3.65;82.85
83697;BME280;73677;54.530;18.484;2024-01-27T12:07:20;101803.28;;;3.61;82.69
83697;BME280;73677;54.530;18.484;2024-01-27T12:09:50;101810.78;;;3.67;82.93
83697;BME280;73677;54.530;18.484;2024-01-27T12:12:20;101823.47;;;3.58;81.87
83697;BME280;73677;54.530;18.484;2024-01-27T12:14:50;101801.09;;;3.47;82.53
83697;BME280;73677;54.530;18.484;2024-01-27T12:17:20;101818.03;;;3.58;80.68
83697;BME280;73677;54.530;18.484;2024-01-27T12:19:50;101837.78;;;3.60;82.88
83697;BME280;73677;54.530;18.484;2024-01-27T12:22:25;101842.81;;;3.73;81.94
83697;BME280;73677;54.530;18.484;2024-01-27T12:24:55;101835.25;;;3.67;80.83
83697;BME280;73677;54.530;18.484;2024-01-27T12:27:27;101847.31;;;3.82;81.47
83697;BME280;73677;54.530;18.484;2024-01-27T12:29:56;101866.94;;;3.94;81.10
83697;BME280;73677;54.530;18.484;2024-01-27T12:32:24;101863.13;;;4.04;80.60
83697;BME280;73677;54.530;18.484;2024-01-27T12:34:54;101865.91;;;4.12;79.94
83697;BME280;73677;54.530;18.484;2024-01-27T12:37:23;101867.63;;;4.13;79.01
83697;BME280;73677;54.530;18.484;2024-01-27T12:39:52;101875.94;;;4.12;79.01
83697;BME280;73677;54.530;18.484;2024-01-27T12:42:20;101875.69;;;4.23;78.73
83697;BME280;73677;54.530;18.484;2024-01-27T12:44:51;101875.84;;;4.21;78.65
83697;BME280;73677;54.530;18.484;2024-01-27T12:47:19;101878.94;;;4.26;78.83
83697;BME280;73677;54.530;18.484;2024-01-27T12:49:48;101889.97;;;4.51;77.16
83697;BME280;73677;54.530;18.484;2024-01-27T12:52:17;101891.28;;;4.73;76.53
83697;BME280;73677;54.530;18.484;2024-01-27T12:54:47;101894.28;;;4.61;75.78
83697;BME280;73677;54.530;18.484;2024-01-27T12:57:16;101880.53;;;4.71;75.52
83697;BME280;73677;54.530;18.484;2024-01-27T12:59:46;101897.66;;;4.81;74.97
83697;BME280;73677;54.530;18.484;2024-01-27T13:02:16;101896.22;;;4.69;74.57
83697;BME280;73677;54.530;18.484;2024-01-27T13:04:44;101907.53;;;4.56;75.88
83697;BME280;73677;54.530;18.484;2024-01-27T13:07:13;101888.91;;;4.44;75.91